PWSweather.com
Personal Weather Stations
Station Observations
PITCARMI1
La Serra, CarmignanoIT 59015

La SerraCarmignanoIT 59015

Lat: 43.804429, Lon: 11.027222

Elevation: 525

Station Type: Davis Vantage Vue

http://www.meteocarmignano.it

Latest ConditionsUpdated 7:00:02 PM GMT+01:01 Wednesday, Oct 1, 2014
Currently Today's Max Today's Min Today's Average
Temperature 67.1°F19.5°C 71.7°F22.1°C 62.0°F16.7°C 65.6°F18.7°C
Dew Point 61.5°F16.4°C 65.9°F18.8°C 59.0°F15.0°C 61.8°F16.6°C
Winds 2.3 mph NE3.7 kmh NE 3.5 mph WNW5.6 kmh WNW - 0.3 mph 0.5 kmh
Wind Gusts 5.8 mph9.3 kmh 5.8 mph9.3 kmh - -
Humidity 82% 93% 80% 88%
Pressure 30.15 in1021.0 mb 30.24 in1024.0 mb 30.13 in1020.3 mb -
Precipitation - 0.28 in7.1 mm - -
Hour Temp Dew Point Humidity Winds Wind Gusts Pressure Precip Precip Rate Daily Precip Total
07:00 PM 67.1°F19.5°C 61.5°F16.4°C 82% 2.3 mph NE3.7 kmh NE 5.8 mph9.3 kmh 30.15 in1021.0 mb 0.00 in0.0 mm 0.00 in/hr0.0 mm/hr 0.28 in7.1 mm
06:30 PM 67.8°F19.9°C 63.8°F17.7°C 87% 1.2 mph N1.9 kmh N 2.3 mph3.7 kmh 30.14 in1020.7 mb 0.00 in0.0 mm 0.00 in/hr0.0 mm/hr 0.28 in7.1 mm
06:00 PM 68.3°F20.2°C 64.0°F17.8°C 86% Calm Calm -- 30.13 in1020.3 mb 0.00 in0.0 mm 0.00 in/hr0.0 mm/hr 0.28 in7.1 mm
05:30 PM 68.8°F20.4°C 64.1°F17.8°C 85% Calm Calm -- 30.14 in1020.7 mb 0.00 in0.0 mm 0.00 in/hr0.0 mm/hr 0.28 in7.1 mm
05:00 PM 71.4°F21.9°C 64.9°F18.3°C 80% Calm Calm -- 30.13 in1020.3 mb 0.00 in0.0 mm 0.00 in/hr0.0 mm/hr 0.28 in7.1 mm
04:30 PM 70.9°F21.6°C 64.8°F18.2°C 81% Calm Calm -- 30.13 in1020.3 mb 0.00 in0.0 mm 0.00 in/hr0.0 mm/hr 0.28 in7.1 mm
04:00 PM 71.7°F22.1°C 65.2°F18.4°C 80% Calm Calm -- 30.14 in1020.7 mb 0.00 in0.0 mm 0.00 in/hr0.0 mm/hr 0.28 in7.1 mm
03:30 PM 70.3°F21.3°C 65.9°F18.8°C 86% Calm Calm 1.2 mph1.9 kmh 30.15 in1021.0 mb 0.00 in0.0 mm 0.00 in/hr0.0 mm/hr 0.28 in7.1 mm
03:00 PM 67.6°F19.8°C 64.6°F18.1°C 90% Calm Calm 1.2 mph1.9 kmh 30.15 in1021.0 mb 0.00 in0.0 mm 0.00 in/hr0.0 mm/hr 0.28 in7.1 mm
02:30 PM 65.4°F18.6°C 63.0°F17.2°C 92% Calm Calm -- 30.16 in1021.3 mb 0.01 in0.3 mm 0.02 in/hr0.5 mm/hr 0.28 in7.1 mm
02:00 PM 64.8°F18.2°C 62.8°F17.1°C 93% 3.5 mph WNW5.6 kmh WNW 4.6 mph7.4 kmh 30.17 in1021.7 mb 0.00 in0.0 mm 0.00 in/hr0.0 mm/hr 0.28 in7.1 mm
01:30 PM 65.9°F18.8°C 62.9°F17.2°C 90% 2.3 mph WNW3.7 kmh WNW 3.5 mph5.6 kmh 30.17 in1021.7 mb 0.01 in0.3 mm 0.02 in/hr0.5 mm/hr 0.28 in7.1 mm
01:00 PM 67.1°F19.5°C 63.4°F17.4°C 88% Calm Calm 1.2 mph1.9 kmh 30.19 in1022.4 mb 0.01 in0.3 mm 0.02 in/hr0.5 mm/hr 0.27 in6.9 mm
12:30 PM 67.9°F19.9°C 63.3°F17.4°C 85% Calm Calm 1.2 mph1.9 kmh 30.20 in1022.7 mb 0.00 in0.0 mm 0.00 in/hr0.0 mm/hr 0.26 in6.6 mm
12:00 PM 66.7°F19.3°C 63.0°F17.2°C 88% Calm Calm 1.2 mph1.9 kmh 30.20 in1022.7 mb 0.00 in0.0 mm 0.00 in/hr0.0 mm/hr 0.26 in6.6 mm
11:30 AM 66.1°F18.9°C 62.8°F17.1°C 89% 1.2 mph WSW1.9 kmh WSW 1.2 mph1.9 kmh 30.21 in1023.0 mb 0.00 in0.0 mm 0.00 in/hr0.0 mm/hr 0.26 in6.6 mm
11:00 AM 65.2°F18.4°C 62.8°F17.1°C 92% Calm Calm 1.2 mph1.9 kmh 30.21 in1023.0 mb 0.00 in0.0 mm 0.00 in/hr0.0 mm/hr 0.26 in6.6 mm
10:30 AM 64.6°F18.1°C 62.2°F16.8°C 92% Calm Calm -- 30.22 in1023.4 mb 0.02 in0.5 mm 0.04 in/hr1.0 mm/hr 0.26 in6.6 mm
10:00 AM 64.0°F17.8°C 61.9°F16.6°C 93% Calm Calm -- 30.22 in1023.4 mb 0.01 in0.3 mm 0.02 in/hr0.5 mm/hr 0.24 in6.1 mm
09:30 AM 63.3°F17.4°C 61.3°F16.3°C 93% Calm Calm -- 30.22 in1023.4 mb 0.02 in0.5 mm 0.04 in/hr1.0 mm/hr 0.23 in5.8 mm
09:00 AM 63.1°F17.3°C 61.0°F16.1°C 93% Calm Calm -- 30.21 in1023.0 mb 0.04 in1.0 mm 0.08 in/hr2.0 mm/hr 0.21 in5.3 mm
08:30 AM 63.3°F17.4°C 60.9°F16.1°C 92% Calm Calm -- 30.21 in1023.0 mb 0.11 in2.8 mm 0.22 in/hr5.6 mm/hr 0.18 in4.6 mm
08:00 AM 63.7°F17.6°C 60.7°F15.9°C 90% Calm Calm 1.2 mph1.9 kmh 30.21 in1023.0 mb 0.06 in1.5 mm 0.12 in/hr3.0 mm/hr 0.07 in1.8 mm
07:30 AM 63.4°F17.4°C 60.4°F15.8°C 90% Calm Calm -- 30.21 in1023.0 mb 0.02 in0.5 mm 0.04 in/hr1.0 mm/hr 0.02 in0.5 mm
07:00 AM 62.9°F17.2°C 59.6°F15.3°C 89% Calm Calm -- 30.21 in1023.0 mb 0.00 in0.0 mm 0.00 in/hr0.0 mm/hr 0.00 in0.0 mm
06:30 AM 62.6°F17.0°C 59.3°F15.2°C 89% Calm Calm -- 30.21 in1023.0 mb 0.00 in0.0 mm 0.00 in/hr0.0 mm/hr 0.00 in0.0 mm
06:00 AM 62.0°F16.7°C 59.0°F15.0°C 90% 1.2 mph WNW1.9 kmh WNW 2.3 mph3.7 kmh 30.21 in1023.0 mb 0.00 in0.0 mm 0.00 in/hr0.0 mm/hr 0.00 in0.0 mm
05:30 AM 62.9°F17.2°C 59.3°F15.2°C 88% Calm Calm -- 30.21 in1023.0 mb 0.00 in0.0 mm 0.00 in/hr0.0 mm/hr 0.00 in0.0 mm
05:00 AM 63.4°F17.4°C 59.5°F15.3°C 87% Calm Calm -- 30.21 in1023.0 mb 0.00 in0.0 mm 0.00 in/hr0.0 mm/hr 0.00 in0.0 mm
04:30 AM 63.7°F17.6°C 59.8°F15.4°C 87% Calm Calm -- 30.21 in1023.0 mb 0.00 in0.0 mm 0.00 in/hr0.0 mm/hr 0.00 in0.0 mm
04:00 AM 64.1°F17.8°C 59.8°F15.4°C 86% Calm Calm -- 30.22 in1023.4 mb 0.00 in0.0 mm 0.00 in/hr0.0 mm/hr 0.00 in0.0 mm
03:30 AM 64.1°F17.8°C 59.8°F15.4°C 86% Calm Calm -- 30.22 in1023.4 mb 0.00 in0.0 mm 0.00 in/hr0.0 mm/hr 0.00 in0.0 mm
03:00 AM 64.2°F17.9°C 59.6°F15.3°C 85% Calm Calm -- 30.22 in1023.4 mb 0.00 in0.0 mm 0.00 in/hr0.0 mm/hr 0.00 in0.0 mm
02:30 AM 64.5°F18.1°C 59.9°F15.5°C 85% Calm Calm -- 30.22 in1023.4 mb 0.00 in0.0 mm 0.00 in/hr0.0 mm/hr 0.00 in0.0 mm
02:00 AM 64.3°F17.9°C 59.7°F15.4°C 85% Calm Calm -- 30.23 in1023.7 mb 0.00 in0.0 mm 0.00 in/hr0.0 mm/hr 0.00 in0.0 mm
01:30 AM 65.0°F18.3°C 59.7°F15.4°C 83% Calm Calm -- 30.23 in1023.7 mb 0.00 in0.0 mm 0.00 in/hr0.0 mm/hr 0.00 in0.0 mm
01:00 AM 65.5°F18.6°C 60.2°F15.7°C 83% Calm Calm -- 30.24 in1024.0 mb 0.00 in0.0 mm 0.00 in/hr0.0 mm/hr 0.00 in0.0 mm